sensor_id;sensor_type;location;lat;lon;timestamp;P1;durP1;ratioP1;P2;durP2;ratioP2
77278;SDS011;66332;50.436;15.378;2023-10-19T00:00:37;15.05;;;7.40;;
77278;SDS011;66332;50.436;15.378;2023-10-19T00:05:45;14.90;;;8.63;;
77278;SDS011;66332;50.436;15.378;2023-10-19T00:10:27;13.88;;;7.40;;
77278;SDS011;66332;50.436;15.378;2023-10-19T00:15:13;14.80;;;8.30;;
77278;SDS011;66332;50.436;15.378;2023-10-19T00:24:47;14.85;;;7.70;;
77278;SDS011;66332;50.436;15.378;2023-10-19T00:29:28;16.70;;;7.43;;
77278;SDS011;66332;50.436;15.378;2023-10-19T00:34:13;18.42;;;8.93;;
77278;SDS011;66332;50.436;15.378;2023-10-19T00:38:54;18.25;;;9.80;;
77278;SDS011;66332;50.436;15.378;2023-10-19T00:43:35;16.33;;;8.18;;
77278;SDS011;66332;50.436;15.378;2023-10-19T00:48:26;12.77;;;7.47;;
77278;SDS011;66332;50.436;15.378;2023-10-19T00:57:50;13.80;;;7.65;;
77278;SDS011;66332;50.436;15.378;2023-10-19T01:02:32;14.98;;;6.55;;
77278;SDS011;66332;50.436;15.378;2023-10-19T01:07:13;12.50;;;5.72;;
77278;SDS011;66332;50.436;15.378;2023-10-19T01:12:02;11.32;;;5.88;;
77278;SDS011;66332;50.436;15.378;2023-10-19T01:17:02;13.32;;;6.57;;
77278;SDS011;66332;50.436;15.378;2023-10-19T01:21:43;16.70;;;7.10;;
77278;SDS011;66332;50.436;15.378;2023-10-19T01:26:27;14.63;;;7.20;;
77278;SDS011;66332;50.436;15.378;2023-10-19T01:31:08;14.90;;;7.38;;
77278;SDS011;66332;50.436;15.378;2023-10-19T01:35:57;16.25;;;7.20;;
77278;SDS011;66332;50.436;15.378;2023-10-19T01:40:55;14.93;;;7.10;;
77278;SDS011;66332;50.436;15.378;2023-10-19T01:45:39;14.15;;;7.40;;
77278;SDS011;66332;50.436;15.378;2023-10-19T01:50:20;14.43;;;7.80;;
77278;SDS011;66332;50.436;15.378;2023-10-19T01:55:00;14.87;;;7.13;;
77278;SDS011;66332;50.436;15.378;2023-10-19T01:59:48;12.75;;;6.38;;
77278;SDS011;66332;50.436;15.378;2023-10-19T02:04:28;15.45;;;7.97;;
77278;SDS011;66332;50.436;15.378;2023-10-19T02:09:10;26.25;;;8.05;;
77278;SDS011;66332;50.436;15.378;2023-10-19T02:13:58;14.60;;;7.95;;
77278;SDS011;66332;50.436;15.378;2023-10-19T02:18:45;16.42;;;8.52;;
77278;SDS011;66332;50.436;15.378;2023-10-19T02:23:25;14.27;;;8.00;;
77278;SDS011;66332;50.436;15.378;2023-10-19T02:28:06;16.42;;;8.18;;
77278;SDS011;66332;50.436;15.378;2023-10-19T02:32:47;16.23;;;8.20;;
77278;SDS011;66332;50.436;15.378;2023-10-19T02:37:28;13.52;;;7.90;;
77278;SDS011;66332;50.436;15.378;2023-10-19T02:42:09;15.07;;;7.78;;
77278;SDS011;66332;50.436;15.378;2023-10-19T02:46:51;14.77;;;7.88;;
77278;SDS011;66332;50.436;15.378;2023-10-19T02:51:40;16.60;;;8.07;;
77278;SDS011;66332;50.436;15.378;2023-10-19T02:56:25;14.38;;;8.07;;
77278;SDS011;66332;50.436;15.378;2023-10-19T03:01:11;14.35;;;7.93;;
77278;SDS011;66332;50.436;15.378;2023-10-19T03:06:05;20.50;;;9.50;;
77278;SDS011;66332;50.436;15.378;2023-10-19T03:10:47;15.38;;;8.65;;
77278;SDS011;66332;50.436;15.378;2023-10-19T03:15:27;14.77;;;7.75;;
77278;SDS011;66332;50.436;15.378;2023-10-19T03:20:10;15.18;;;7.68;;
77278;SDS011;66332;50.436;15.378;2023-10-19T03:24:51;14.18;;;7.80;;
77278;SDS011;66332;50.436;15.378;2023-10-19T03:29:52;16.70;;;8.30;;
77278;SDS011;66332;50.436;15.378;2023-10-19T03:34:36;16.95;;;8.07;;
77278;SDS011;66332;50.436;15.378;2023-10-19T03:39:17;16.67;;;8.52;;
77278;SDS011;66332;50.436;15.378;2023-10-19T03:43:58;15.20;;;8.32;;
77278;SDS011;66332;50.436;15.378;2023-10-19T03:48:39;14.45;;;8.23;;
77278;SDS011;66332;50.436;15.378;2023-10-19T03:53:20;15.10;;;8.18;;
77278;SDS011;66332;50.436;15.378;2023-10-19T03:58:01;16.10;;;8.32;;
77278;SDS011;66332;50.436;15.378;2023-10-19T04:02:42;15.07;;;8.32;;
77278;SDS011;66332;50.436;15.378;2023-10-19T04:07:23;16.90;;;7.72;;
77278;SDS011;66332;50.436;15.378;2023-10-19T04:12:06;15.50;;;8.52;;
77278;SDS011;66332;50.436;15.378;2023-10-19T04:16:47;16.65;;;8.75;;
77278;SDS011;66332;50.436;15.378;2023-10-19T04:21:29;15.63;;;7.93;;
77278;SDS011;66332;50.436;15.378;2023-10-19T04:26:10;15.68;;;8.20;;
77278;SDS011;66332;50.436;15.378;2023-10-19T04:30:51;16.38;;;8.10;;
77278;SDS011;66332;50.436;15.378;2023-10-19T04:35:32;15.50;;;7.93;;
77278;SDS011;66332;50.436;15.378;2023-10-19T04:40:14;17.73;;;8.98;;
77278;SDS011;66332;50.436;15.378;2023-10-19T04:44:55;17.08;;;9.10;;
77278;SDS011;66332;50.436;15.378;2023-10-19T04:49:36;16.98;;;9.25;;
77278;SDS011;66332;50.436;15.378;2023-10-19T04:54:18;17.35;;;9.15;;
77278;SDS011;66332;50.436;15.378;2023-10-19T04:58:59;17.95;;;9.50;;
77278;SDS011;66332;50.436;15.378;2023-10-19T05:03:43;18.33;;;9.63;;
77278;SDS011;66332;50.436;15.378;2023-10-19T05:08:24;18.20;;;9.23;;
77278;SDS011;66332;50.436;15.378;2023-10-19T05:13:06;17.02;;;9.50;;
77278;SDS011;66332;50.436;15.378;2023-10-19T05:17:46;17.52;;;9.75;;
77278;SDS011;66332;50.436;15.378;2023-10-19T05:22:28;19.55;;;10.00;;
77278;SDS011;66332;50.436;15.378;2023-10-19T05:27:12;19.63;;;9.63;;
77278;SDS011;66332;50.436;15.378;2023-10-19T05:31:53;16.50;;;9.35;;
77278;SDS011;66332;50.436;15.378;2023-10-19T05:36:34;18.48;;;9.85;;
77278;SDS011;66332;50.436;15.378;2023-10-19T05:41:16;19.98;;;10.85;;
77278;SDS011;66332;50.436;15.378;2023-10-19T05:45:59;18.98;;;11.00;;
77278;SDS011;66332;50.436;15.378;2023-10-19T05:50:40;19.63;;;10.73;;
77278;SDS011;66332;50.436;15.378;2023-10-19T05:55:22;22.25;;;11.65;;
77278;SDS011;66332;50.436;15.378;2023-10-19T06:00:04;20.90;;;10.90;;
77278;SDS011;66332;50.436;15.378;2023-10-19T06:04:45;16.95;;;10.25;;
77278;SDS011;66332;50.436;15.378;2023-10-19T06:09:26;18.33;;;9.02;;
77278;SDS011;66332;50.436;15.378;2023-10-19T06:14:09;18.73;;;10.02;;
77278;SDS011;66332;50.436;15.378;2023-10-19T06:18:51;18.65;;;9.43;;
77278;SDS011;66332;50.436;15.378;2023-10-19T06:23:31;22.38;;;10.60;;
77278;SDS011;66332;50.436;15.378;2023-10-19T06:28:12;20.02;;;10.88;;
77278;SDS011;66332;50.436;15.378;2023-10-19T06:32:54;22.17;;;11.63;;
77278;SDS011;66332;50.436;15.378;2023-10-19T06:37:37;20.45;;;10.45;;
77278;SDS011;66332;50.436;15.378;2023-10-19T06:42:19;21.52;;;11.38;;
77278;SDS011;66332;50.436;15.378;2023-10-19T06:46:59;20.23;;;10.35;;
77278;SDS011;66332;50.436;15.378;2023-10-19T06:51:40;17.17;;;9.93;;
77278;SDS011;66332;50.436;15.378;2023-10-19T06:56:21;22.10;;;9.98;;
77278;SDS011;66332;50.436;15.378;2023-10-19T07:01:02;21.45;;;11.70;;
77278;SDS011;66332;50.436;15.378;2023-10-19T07:05:48;20.85;;;11.10;;
77278;SDS011;66332;50.436;15.378;2023-10-19T07:10:30;22.88;;;10.82;;
77278;SDS011;66332;50.436;15.378;2023-10-19T07:15:11;22.08;;;11.68;;
77278;SDS011;66332;50.436;15.378;2023-10-19T07:19:54;21.10;;;11.85;;
77278;SDS011;66332;50.436;15.378;2023-10-19T07:24:35;18.70;;;10.05;;
77278;SDS011;66332;50.436;15.378;2023-10-19T07:29:18;22.63;;;10.98;;
77278;SDS011;66332;50.436;15.378;2023-10-19T07:33:59;24.05;;;13.38;;
77278;SDS011;66332;50.436;15.378;2023-10-19T07:38:41;22.17;;;12.73;;
77278;SDS011;66332;50.436;15.378;2023-10-19T07:43:22;23.48;;;12.23;;
77278;SDS011;66332;50.436;15.378;2023-10-19T07:52:51;20.17;;;11.05;;
77278;SDS011;66332;50.436;15.378;2023-10-19T07:57:32;22.80;;;12.65;;
77278;SDS011;66332;50.436;15.378;2023-10-19T08:02:14;24.58;;;12.68;;
77278;SDS011;66332;50.436;15.378;2023-10-19T08:06:55;24.15;;;14.45;;
77278;SDS011;66332;50.436;15.378;2023-10-19T08:11:36;25.75;;;13.23;;
77278;SDS011;66332;50.436;15.378;2023-10-19T08:16:17;21.85;;;13.05;;
77278;SDS011;66332;50.436;15.378;2023-10-19T08:20:58;26.55;;;14.30;;
77278;SDS011;66332;50.436;15.378;2023-10-19T08:25:38;25.20;;;12.63;;
77278;SDS011;66332;50.436;15.378;2023-10-19T08:30:20;24.00;;;12.70;;
77278;SDS011;66332;50.436;15.378;2023-10-19T08:35:02;27.70;;;12.98;;
77278;SDS011;66332;50.436;15.378;2023-10-19T08:39:43;27.42;;;14.43;;
77278;SDS011;66332;50.436;15.378;2023-10-19T08:44:24;26.27;;;14.40;;
77278;SDS011;66332;50.436;15.378;2023-10-19T08:53:52;27.52;;;15.00;;
77278;SDS011;66332;50.436;15.378;2023-10-19T08:58:34;29.17;;;15.35;;
77278;SDS011;66332;50.436;15.378;2023-10-19T09:03:16;27.48;;;14.75;;
77278;SDS011;66332;50.436;15.378;2023-10-19T09:07:57;29.42;;;16.58;;
77278;SDS011;66332;50.436;15.378;2023-10-19T09:12:40;29.52;;;16.08;;
77278;SDS011;66332;50.436;15.378;2023-10-19T09:17:27;27.35;;;16.35;;
77278;SDS011;66332;50.436;15.378;2023-10-19T09:22:09;28.80;;;15.05;;
77278;SDS011;66332;50.436;15.378;2023-10-19T09:27:03;27.63;;;15.20;;
77278;SDS011;66332;50.436;15.378;2023-10-19T09:36:27;28.70;;;15.75;;
77278;SDS011;66332;50.436;15.378;2023-10-19T09:41:11;33.33;;;18.02;;
77278;SDS011;66332;50.436;15.378;2023-10-19T09:45:53;30.50;;;16.95;;
77278;SDS011;66332;50.436;15.378;2023-10-19T09:50:41;33.63;;;16.98;;
77278;SDS011;66332;50.436;15.378;2023-10-19T09:55:22;29.17;;;16.00;;
77278;SDS011;66332;50.436;15.378;2023-10-19T10:00:09;30.70;;;17.05;;
77278;SDS011;66332;50.436;15.378;2023-10-19T10:04:53;29.38;;;16.35;;
77278;SDS011;66332;50.436;15.378;2023-10-19T10:09:38;26.92;;;16.13;;
77278;SDS011;66332;50.436;15.378;2023-10-19T10:14:24;28.13;;;15.75;;
77278;SDS011;66332;50.436;15.378;2023-10-19T10:19:06;29.25;;;16.08;;
77278;SDS011;66332;50.436;15.378;2023-10-19T10:23:48;31.30;;;16.83;;
77278;SDS011;66332;50.436;15.378;2023-10-19T10:28:47;29.48;;;16.60;;
77278;SDS011;66332;50.436;15.378;2023-10-19T10:33:42;27.13;;;16.17;;
77278;SDS011;66332;50.436;15.378;2023-10-19T10:38:25;29.70;;;17.30;;
77278;SDS011;66332;50.436;15.378;2023-10-19T10:43:15;35.97;;;18.15;;
77278;SDS011;66332;50.436;15.378;2023-10-19T10:47:56;33.50;;;16.33;;
77278;SDS011;66332;50.436;15.378;2023-10-19T10:52:37;32.08;;;18.90;;
77278;SDS011;66332;50.436;15.378;2023-10-19T10:57:18;33.83;;;18.90;;
77278;SDS011;66332;50.436;15.378;2023-10-19T11:02:00;30.73;;;18.92;;
77278;SDS011;66332;50.436;15.378;2023-10-19T11:06:47;29.63;;;16.38;;
77278;SDS011;66332;50.436;15.378;2023-10-19T11:11:36;34.15;;;19.40;;
77278;SDS011;66332;50.436;15.378;2023-10-19T11:16:21;29.23;;;17.20;;
77278;SDS011;66332;50.436;15.378;2023-10-19T11:21:05;31.50;;;18.40;;
77278;SDS011;66332;50.436;15.378;2023-10-19T11:25:57;33.28;;;18.83;;
77278;SDS011;66332;50.436;15.378;2023-10-19T11:30:38;30.98;;;18.02;;
77278;SDS011;66332;50.436;15.378;2023-10-19T11:35:20;29.65;;;16.77;;
77278;SDS011;66332;50.436;15.378;2023-10-19T11:40:01;30.08;;;17.60;;
77278;SDS011;66332;50.436;15.378;2023-10-19T11:44:42;29.05;;;17.17;;
77278;SDS011;66332;50.436;15.378;2023-10-19T11:49:23;33.83;;;18.27;;
77278;SDS011;66332;50.436;15.378;2023-10-19T11:54:04;28.48;;;18.08;;
77278;SDS011;66332;50.436;15.378;2023-10-19T11:58:46;28.02;;;16.85;;
77278;SDS011;66332;50.436;15.378;2023-10-19T12:03:27;28.48;;;17.27;;
77278;SDS011;66332;50.436;15.378;2023-10-19T12:08:08;30.33;;;18.13;;
77278;SDS011;66332;50.436;15.378;2023-10-19T12:12:49;31.98;;;17.50;;
77278;SDS011;66332;50.436;15.378;2023-10-19T12:17:30;32.22;;;19.05;;
77278;SDS011;66332;50.436;15.378;2023-10-19T12:22:11;29.67;;;18.48;;
77278;SDS011;66332;50.436;15.378;2023-10-19T12:26:51;30.00;;;17.73;;
77278;SDS011;66332;50.436;15.378;2023-10-19T12:31:32;29.33;;;17.58;;
77278;SDS011;66332;50.436;15.378;2023-10-19T12:36:13;26.67;;;15.55;;
77278;SDS011;66332;50.436;15.378;2023-10-19T12:41:03;27.77;;;16.67;;
77278;SDS011;66332;50.436;15.378;2023-10-19T12:45:44;28.40;;;16.08;;
77278;SDS011;66332;50.436;15.378;2023-10-19T12:50:30;31.23;;;16.92;;
77278;SDS011;66332;50.436;15.378;2023-10-19T12:55:11;27.30;;;17.00;;
77278;SDS011;66332;50.436;15.378;2023-10-19T12:59:52;29.13;;;17.25;;
77278;SDS011;66332;50.436;15.378;2023-10-19T13:04:33;29.45;;;17.48;;
77278;SDS011;66332;50.436;15.378;2023-10-19T13:09:13;28.85;;;16.50;;
77278;SDS011;66332;50.436;15.378;2023-10-19T13:13:56;32.83;;;17.65;;
77278;SDS011;66332;50.436;15.378;2023-10-19T13:18:37;27.92;;;17.50;;
77278;SDS011;66332;50.436;15.378;2023-10-19T13:23:20;28.05;;;17.63;;
77278;SDS011;66332;50.436;15.378;2023-10-19T13:28:10;31.50;;;17.95;;
77278;SDS011;66332;50.436;15.378;2023-10-19T13:32:53;32.67;;;17.98;;
77278;SDS011;66332;50.436;15.378;2023-10-19T13:37:34;28.35;;;17.52;;
77278;SDS011;66332;50.436;15.378;2023-10-19T13:42:15;31.05;;;17.90;;
77278;SDS011;66332;50.436;15.378;2023-10-19T13:46:55;33.25;;;18.92;;
77278;SDS011;66332;50.436;15.378;2023-10-19T13:51:36;30.85;;;18.67;;
77278;SDS011;66332;50.436;15.378;2023-10-19T13:56:17;31.77;;;18.80;;
77278;SDS011;66332;50.436;15.378;2023-10-19T14:00:58;33.83;;;19.23;;
77278;SDS011;66332;50.436;15.378;2023-10-19T14:05:43;33.58;;;19.95;;
77278;SDS011;66332;50.436;15.378;2023-10-19T14:10:28;30.70;;;19.08;;
77278;SDS011;66332;50.436;15.378;2023-10-19T14:15:18;28.63;;;17.38;;
77278;SDS011;66332;50.436;15.378;2023-10-19T14:20:00;35.70;;;19.83;;
77278;SDS011;66332;50.436;15.378;2023-10-19T14:24:41;33.25;;;18.83;;
77278;SDS011;66332;50.436;15.378;2023-10-19T14:29:22;32.10;;;18.50;;
77278;SDS011;66332;50.436;15.378;2023-10-19T14:34:03;33.50;;;20.30;;
77278;SDS011;66332;50.436;15.378;2023-10-19T14:38:44;34.13;;;20.75;;
77278;SDS011;66332;50.436;15.378;2023-10-19T14:43:26;35.22;;;19.10;;
77278;SDS011;66332;50.436;15.378;2023-10-19T14:48:09;35.40;;;20.80;;
77278;SDS011;66332;50.436;15.378;2023-10-19T14:52:52;35.42;;;20.33;;
77278;SDS011;66332;50.436;15.378;2023-10-19T14:57:33;33.72;;;20.25;;
77278;SDS011;66332;50.436;15.378;2023-10-19T15:02:14;36.00;;;19.70;;
77278;SDS011;66332;50.436;15.378;2023-10-19T15:06:56;36.80;;;21.33;;
77278;SDS011;66332;50.436;15.378;2023-10-19T15:11:37;34.58;;;20.73;;
77278;SDS011;66332;50.436;15.378;2023-10-19T15:16:18;38.33;;;20.63;;
77278;SDS011;66332;50.436;15.378;2023-10-19T15:21:05;36.20;;;21.98;;
77278;SDS011;66332;50.436;15.378;2023-10-19T15:25:47;35.33;;;22.13;;
77278;SDS011;66332;50.436;15.378;2023-10-19T15:30:28;39.30;;;24.75;;
77278;SDS011;66332;50.436;15.378;2023-10-19T15:35:09;44.20;;;22.20;;
77278;SDS011;66332;50.436;15.378;2023-10-19T15:39:52;36.65;;;22.23;;
77278;SDS011;66332;50.436;15.378;2023-10-19T15:44:34;38.80;;;22.67;;
77278;SDS011;66332;50.436;15.378;2023-10-19T15:49:15;40.40;;;23.85;;
77278;SDS011;66332;50.436;15.378;2023-10-19T15:53:56;41.80;;;24.20;;
77278;SDS011;66332;50.436;15.378;2023-10-19T15:58:37;39.28;;;24.17;;
77278;SDS011;66332;50.436;15.378;2023-10-19T16:03:18;37.50;;;24.77;;
77278;SDS011;66332;50.436;15.378;2023-10-19T16:07:59;49.92;;;29.63;;
77278;SDS011;66332;50.436;15.378;2023-10-19T16:12:40;46.47;;;28.33;;
77278;SDS011;66332;50.436;15.378;2023-10-19T16:17:22;41.78;;;25.80;;
77278;SDS011;66332;50.436;15.378;2023-10-19T16:22:04;45.58;;;24.73;;
77278;SDS011;66332;50.436;15.378;2023-10-19T16:26:45;40.30;;;22.67;;
77278;SDS011;66332;50.436;15.378;2023-10-19T16:31:26;41.40;;;22.23;;
77278;SDS011;66332;50.436;15.378;2023-10-19T16:36:07;45.42;;;26.83;;
77278;SDS011;66332;50.436;15.378;2023-10-19T16:45:31;42.05;;;24.98;;
77278;SDS011;66332;50.436;15.378;2023-10-19T16:50:12;45.20;;;26.77;;
77278;SDS011;66332;50.436;15.378;2023-10-19T16:54:59;47.50;;;26.77;;
77278;SDS011;66332;50.436;15.378;2023-10-19T16:59:39;44.70;;;26.35;;
77278;SDS011;66332;50.436;15.378;2023-10-19T17:04:20;50.97;;;29.65;;
77278;SDS011;66332;50.436;15.378;2023-10-19T17:09:12;46.45;;;27.30;;
77278;SDS011;66332;50.436;15.378;2023-10-19T17:13:58;48.50;;;28.05;;
77278;SDS011;66332;50.436;15.378;2023-10-19T17:18:39;53.40;;;30.08;;
77278;SDS011;66332;50.436;15.378;2023-10-19T17:23:20;51.47;;;29.55;;
77278;SDS011;66332;50.436;15.378;2023-10-19T17:28:01;53.88;;;31.42;;
77278;SDS011;66332;50.436;15.378;2023-10-19T17:32:42;61.17;;;31.08;;
77278;SDS011;66332;50.436;15.378;2023-10-19T17:37:23;55.10;;;30.02;;
77278;SDS011;66332;50.436;15.378;2023-10-19T17:42:04;56.45;;;29.80;;
77278;SDS011;66332;50.436;15.378;2023-10-19T17:46:45;52.45;;;29.55;;
77278;SDS011;66332;50.436;15.378;2023-10-19T17:51:26;48.78;;;29.10;;
77278;SDS011;66332;50.436;15.378;2023-10-19T17:56:07;54.67;;;30.92;;
77278;SDS011;66332;50.436;15.378;2023-10-19T18:00:48;58.50;;;30.83;;
77278;SDS011;66332;50.436;15.378;2023-10-19T18:05:29;51.63;;;29.25;;
77278;SDS011;66332;50.436;15.378;2023-10-19T18:10:11;56.33;;;29.83;;
77278;SDS011;66332;50.436;15.378;2023-10-19T18:14:56;49.85;;;27.73;;
77278;SDS011;66332;50.436;15.378;2023-10-19T18:19:37;52.80;;;28.52;;
77278;SDS011;66332;50.436;15.378;2023-10-19T18:24:18;53.10;;;30.05;;
77278;SDS011;66332;50.436;15.378;2023-10-19T18:28:59;52.35;;;29.70;;
77278;SDS011;66332;50.436;15.378;2023-10-19T18:33:40;56.13;;;29.15;;
77278;SDS011;66332;50.436;15.378;2023-10-19T18:38:22;56.92;;;29.65;;
77278;SDS011;66332;50.436;15.378;2023-10-19T18:43:03;56.58;;;30.15;;
77278;SDS011;66332;50.436;15.378;2023-10-19T18:47:44;60.97;;;34.00;;
77278;SDS011;66332;50.436;15.378;2023-10-19T18:52:25;59.75;;;34.85;;
77278;SDS011;66332;50.436;15.378;2023-10-19T18:57:05;62.47;;;33.47;;
77278;SDS011;66332;50.436;15.378;2023-10-19T19:01:47;61.80;;;33.75;;
77278;SDS011;66332;50.436;15.378;2023-10-19T19:11:12;59.95;;;31.75;;
77278;SDS011;66332;50.436;15.378;2023-10-19T19:15:54;64.63;;;32.97;;
77278;SDS011;66332;50.436;15.378;2023-10-19T19:20:38;71.97;;;37.50;;
77278;SDS011;66332;50.436;15.378;2023-10-19T19:25:20;68.22;;;37.03;;
77278;SDS011;66332;50.436;15.378;2023-10-19T19:30:02;60.03;;;31.25;;
77278;SDS011;66332;50.436;15.378;2023-10-19T19:34:46;59.55;;;31.10;;
77278;SDS011;66332;50.436;15.378;2023-10-19T19:39:27;62.22;;;31.27;;
77278;SDS011;66332;50.436;15.378;2023-10-19T19:44:08;60.30;;;31.23;;
77278;SDS011;66332;50.436;15.378;2023-10-19T19:48:49;57.80;;;32.10;;
77278;SDS011;66332;50.436;15.378;2023-10-19T19:53:30;56.53;;;30.77;;
77278;SDS011;66332;50.436;15.378;2023-10-19T20:02:52;59.75;;;30.95;;
77278;SDS011;66332;50.436;15.378;2023-10-19T20:07:33;53.50;;;29.92;;
77278;SDS011;66332;50.436;15.378;2023-10-19T20:12:14;57.90;;;29.35;;
77278;SDS011;66332;50.436;15.378;2023-10-19T20:16:55;57.75;;;30.58;;
77278;SDS011;66332;50.436;15.378;2023-10-19T20:21:36;58.95;;;30.00;;
77278;SDS011;66332;50.436;15.378;2023-10-19T20:26:16;58.83;;;29.77;;
77278;SDS011;66332;50.436;15.378;2023-10-19T20:31:00;58.35;;;29.08;;
77278;SDS011;66332;50.436;15.378;2023-10-19T20:35:41;60.22;;;31.63;;
77278;SDS011;66332;50.436;15.378;2023-10-19T20:40:22;59.72;;;30.75;;
77278;SDS011;66332;50.436;15.378;2023-10-19T20:45:03;55.55;;;28.35;;
77278;SDS011;66332;50.436;15.378;2023-10-19T20:49:44;54.75;;;28.63;;
77278;SDS011;66332;50.436;15.378;2023-10-19T20:54:25;58.13;;;29.63;;
77278;SDS011;66332;50.436;15.378;2023-10-19T20:59:06;58.40;;;30.23;;
77278;SDS011;66332;50.436;15.378;2023-10-19T21:03:48;61.50;;;31.33;;
77278;SDS011;66332;50.436;15.378;2023-10-19T21:08:29;56.28;;;28.60;;
77278;SDS011;66332;50.436;15.378;2023-10-19T21:13:09;57.22;;;30.15;;
77278;SDS011;66332;50.436;15.378;2023-10-19T21:17:51;56.92;;;30.50;;
77278;SDS011;66332;50.436;15.378;2023-10-19T21:22:32;58.92;;;30.08;;
77278;SDS011;66332;50.436;15.378;2023-10-19T21:31:54;57.30;;;28.52;;
77278;SDS011;66332;50.436;15.378;2023-10-19T21:36:36;54.63;;;29.17;;
77278;SDS011;66332;50.436;15.378;2023-10-19T21:41:17;61.90;;;30.05;;
77278;SDS011;66332;50.436;15.378;2023-10-19T21:46:02;66.82;;;31.80;;
77278;SDS011;66332;50.436;15.378;2023-10-19T21:50:43;64.25;;;32.17;;
77278;SDS011;66332;50.436;15.378;2023-10-19T21:55:25;63.15;;;30.48;;
77278;SDS011;66332;50.436;15.378;2023-10-19T22:00:06;57.97;;;30.08;;
77278;SDS011;66332;50.436;15.378;2023-10-19T22:04:53;57.85;;;30.52;;
77278;SDS011;66332;50.436;15.378;2023-10-19T22:09:33;57.58;;;29.95;;
77278;SDS011;66332;50.436;15.378;2023-10-19T22:14:14;58.30;;;29.83;;
77278;SDS011;66332;50.436;15.378;2023-10-19T22:18:55;58.17;;;29.75;;
77278;SDS011;66332;50.436;15.378;2023-10-19T22:23:37;58.15;;;29.85;;
77278;SDS011;66332;50.436;15.378;2023-10-19T22:28:18;59.33;;;30.35;;
77278;SDS011;66332;50.436;15.378;2023-10-19T22:32:59;55.63;;;29.90;;
77278;SDS011;66332;50.436;15.378;2023-10-19T22:42:21;57.50;;;30.55;;
77278;SDS011;66332;50.436;15.378;2023-10-19T22:51:44;58.30;;;29.48;;
77278;SDS011;66332;50.436;15.378;2023-10-19T22:56:24;57.25;;;29.08;;
77278;SDS011;66332;50.436;15.378;2023-10-19T23:01:05;59.40;;;29.92;;
77278;SDS011;66332;50.436;15.378;2023-10-19T23:05:46;54.35;;;27.88;;
77278;SDS011;66332;50.436;15.378;2023-10-19T23:10:27;54.90;;;30.17;;
77278;SDS011;66332;50.436;15.378;2023-10-19T23:15:12;57.25;;;28.95;;
77278;SDS011;66332;50.436;15.378;2023-10-19T23:19:56;57.85;;;30.10;;
77278;SDS011;66332;50.436;15.378;2023-10-19T23:24:37;55.28;;;28.80;;
77278;SDS011;66332;50.436;15.378;2023-10-19T23:29:18;63.70;;;33.20;;
77278;SDS011;66332;50.436;15.378;2023-10-19T23:33:59;58.97;;;29.63;;
77278;SDS011;66332;50.436;15.378;2023-10-19T23:38:41;55.47;;;28.58;;
77278;SDS011;66332;50.436;15.378;2023-10-19T23:43:22;54.85;;;28.88;;
77278;SDS011;66332;50.436;15.378;2023-10-19T23:48:04;53.10;;;27.92;;
77278;SDS011;66332;50.436;15.378;2023-10-19T23:52:50;53.53;;;29.65;;
77278;SDS011;66332;50.436;15.378;2023-10-19T23:57:33;54.35;;;27.42;;
